地図

経路データ

SID SEASON NUMBER BASIN SUBBASIN NAME ISO_TIME NATURE LAT LON WMO_WIND WMO_PRES WMO_AGENCY TRACK_TYPE DIST2LAND LANDFALL IFLAG USA_AGENCY USA_ATCF_ID USA_LAT USA_LON USA_RECORD USA_STATUS USA_WIND USA_PRES USA_SSHS USA_R34_NE USA_R34_SE USA_R34_SW USA_R34_NW USA_R50_NE USA_R50_SE USA_R50_SW USA_R50_NW USA_R64_NE USA_R64_SE USA_R64_SW USA_R64_NW USA_POCI USA_ROCI USA_RMW USA_EYE TOKYO_LAT TOKYO_LON TOKYO_GRADE TOKYO_WIND TOKYO_PRES TOKYO_R50_DIR TOKYO_R50_LONG TOKYO_R50_SHORT TOKYO_R30_DIR TOKYO_R30_LONG TOKYO_R30_SHORT TOKYO_LAND CMA_LAT CMA_LON CMA_CAT CMA_WIND CMA_PRES HKO_LAT HKO_LON HKO_CAT HKO_WIND HKO_PRES NEWDELHI_LAT NEWDELHI_LON NEWDELHI_GRADE NEWDELHI_WIND NEWDELHI_PRES NEWDELHI_CI NEWDELHI_DP NEWDELHI_POCI REUNION_LAT REUNION_LON REUNION_TYPE REUNION_WIND REUNION_PRES REUNION_TNUM REUNION_CI REUNION_RMW REUNION_R34_NE REUNION_R34_SE REUNION_R34_SW REUNION_R34_NW REUNION_R50_NE REUNION_R50_SE REUNION_R50_SW REUNION_R50_NW REUNION_R64_NE REUNION_R64_SE REUNION_R64_SW REUNION_R64_NW BOM_LAT BOM_LON BOM_TYPE BOM_WIND BOM_PRES BOM_TNUM BOM_CI BOM_RMW BOM_R34_NE BOM_R34_SE BOM_R34_SW BOM_R34_NW BOM_R50_NE BOM_R50_SE BOM_R50_SW BOM_R50_NW BOM_R64_NE BOM_R64_SE BOM_R64_SW BOM_R64_NW BOM_ROCI BOM_POCI BOM_EYE BOM_POS_METHOD BOM_PRES_METHOD NADI_LAT NADI_LON NADI_CAT NADI_WIND NADI_PRES WELLINGTON_LAT WELLINGTON_LON WELLINGTON_WIND WELLINGTON_PRES DS824_LAT DS824_LON DS824_STAGE DS824_WIND DS824_PRES TD9636_LAT TD9636_LON TD9636_STAGE TD9636_WIND TD9636_PRES TD9635_LAT TD9635_LON TD9635_WIND TD9635_PRES TD9635_ROCI NEUMANN_LAT NEUMANN_LON NEUMANN_CLASS NEUMANN_WIND NEUMANN_PRES MLC_LAT MLC_LON MLC_CLASS MLC_WIND MLC_PRES USA_GUST BOM_GUST BOM_GUST_PER REUNION_GUST REUNION_GUST_PER USA_SEAHGT USA_SEARAD_NE USA_SEARAD_SE USA_SEARAD_SW USA_SEARAD_NW STORM_SPEED STORM_DIR
2014253N13244 2014 64 EP MM NOT_NAMED 2014-09-10 06:00:00 DS 12.5000 -116.500 25 1009 hurdat_epa main 1351 1351 O_____________ hurdat_epa EP162014 12.5000 -116.500 LO 25 1009 -3 1011 150 110 9 286
2014253N13244 2014 64 EP MM NOT_NAMED 2014-09-10 09:00:00 DS 12.6327 -116.965 main 1369 1360 P_____________ EP162014 12.6327 -116.965 LO 25 1009 -3 1011 150 100 9 289
2014253N13244 2014 64 EP MM NOT_NAMED 2014-09-10 12:00:00 DS 12.8000 -117.400 25 1009 hurdat_epa main 1374 1370 O_____________ hurdat_epa EP162014 12.8000 -117.400 LO 25 1009 -3 1011 150 90 35 9 296
2014253N13244 2014 64 EP MM NOT_NAMED 2014-09-10 15:00:00 DS 13.0274 -117.780 main 1380 1368 P_____________ EP162014 13.0274 -117.780 LO 27 1009 -3 1011 150 90 8 306
2014253N13244 2014 64 EP MM NOT_NAMED 2014-09-10 18:00:00 DS 13.3000 -118.100 30 1009 hurdat_epa main 1372 1366 O_____________ hurdat_epa EP162014 13.3000 -118.100 LO 30 1009 -3 1011 150 90 35 8 314
2014253N13244 2014 64 EP MM NOT_NAMED 2014-09-10 21:00:00 DS 13.5774 -118.365 main 1366 1354 P_____________ EP162014 13.5774 -118.365 LO 30 1009 -3 1011 150 90 8 321
2014253N13244 2014 64 EP MM NOT_NAMED 2014-09-11 00:00:00 DS 13.9000 -118.600 30 1009 hurdat_epa main 1354 1335 O_____________ hurdat_epa EP162014 13.9000 -118.600 LO 30 1009 -3 1011 150 90 40 9 327
2014253N13244 2014 64 EP MM NOT_NAMED 2014-09-11 03:00:00 DS 14.2924 -118.843 main 1335 1325 P_____________ EP162014 14.2924 -118.843 LO 30 1008 -3 1011 150 65 9 329
2014253N13244 2014 64 EP MM NOT_NAMED 2014-09-11 06:00:00 TS 14.7000 -119.100 30 1007 hurdat_epa main 1325 1317 O_____________ hurdat_epa EP162014 14.7000 -119.100 TD 30 1007 -1 1011 150 40 40 9 325
2014253N13244 2014 64 EP MM NOT_NAMED 2014-09-11 09:00:00 TS 15.0650 -119.400 main 1316 1307 P_____________ EP162014 15.0650 -119.400 TD 30 1006 -1 1010 145 40 9 320
2014253N13244 2014 64 EP MM NOT_NAMED 2014-09-11 12:00:00 TS 15.4000 -119.700 30 1006 hurdat_epa main 1307 1293 O_____________ hurdat_epa EP162014 15.4000 -119.700 TD 30 1006 -1 1009 140 40 40 9 319
2014253N13244 2014 64 EP MM NOT_NAMED 2014-09-11 15:00:00 TS 15.7225 -119.995 main 1300 1287 P_____________ EP162014 15.7225 -119.995 TD 30 1006 -1 1009 140 40 8 321
2014253N13244 2014 64 EP MM NOT_NAMED 2014-09-11 18:00:00 TS 16.0000 -120.200 30 1006 hurdat_epa main 1287 1277 O_____________ hurdat_epa EP162014 16.0000 -120.200 TD 30 1006 -1 1009 140 40 40 6 333
2014253N13244 2014 64 EP MM NOT_NAMED 2014-09-11 21:00:00 TS 16.2224 -120.260 main 1277 1253 P_____________ EP162014 16.2224 -120.260 TD 30 1006 -1 1008 140 40 4 0
2014253N13244 2014 64 EP MM NOT_NAMED 2014-09-12 00:00:00 TS 16.4000 -120.200 30 1006 hurdat_epa main 1253 1229 O_____________ hurdat_epa EP162014 16.4000 -120.200 TD 30 1006 -1 1008 140 40 40 4 27
2014253N13244 2014 64 EP MM NOT_NAMED 2014-09-12 03:00:00 TS 16.5650 -120.080 main 1229 1206 P_____________ EP162014 16.5650 -120.080 TD 30 1006 -1 1008 140 65 4 44
2014253N13244 2014 64 EP MM NOT_NAMED 2014-09-12 06:00:00 TS 16.7000 -119.900 30 1006 hurdat_epa main 1206 1184 O_____________ hurdat_epa EP162014 16.7000 -119.900 TD 30 1006 -1 1008 140 90 40 4 54
2014253N13244 2014 64 EP MM NOT_NAMED 2014-09-12 09:00:00 TS 16.8225 -119.715 main 1184 1162 P_____________ EP162014 16.8225 -119.715 TD 30 1006 -1 1008 140 90 4 63
2014253N13244 2014 64 EP MM NOT_NAMED 2014-09-12 12:00:00 TS 16.9000 -119.500 30 1006 hurdat_epa main 1162 1148 O_____________ hurdat_epa EP162014 16.9000 -119.500 TD 30 1006 -1 1008 140 90 40 5 76
2014253N13244 2014 64 EP MM NOT_NAMED 2014-09-12 15:00:00 TS 16.9300 -119.258 main 1148 1128 P_____________ EP162014 16.9300 -119.258 TD 30 1006 -1 1008 130 90 5 90
2014253N13244 2014 64 EP MM NOT_NAMED 2014-09-12 18:00:00 TS 16.9000 -119.000 30 1007 hurdat_epa main 1128 1115 O_____________ hurdat_epa EP162014 16.9000 -119.000 TD 30 1007 -1 1009 120 90 40 5 102
2014253N13244 2014 64 EP MM NOT_NAMED 2014-09-12 21:00:00 TS 16.8225 -118.750 main 1118 1111 P_____________ EP162014 16.8225 -118.750 TD 30 1007 -1 1009 120 90 5 113
2014253N13244 2014 64 EP MM NOT_NAMED 2014-09-13 00:00:00 TS 16.7000 -118.500 30 1007 hurdat_epa main 1114 1108 O_____________ hurdat_epa EP162014 16.7000 -118.500 TD 30 1007 -1 1009 120 90 40 5 118
2014253N13244 2014 64 EP MM NOT_NAMED 2014-09-13 03:00:00 TS 16.5650 -118.250 main 1111 1105 P_____________ EP162014 16.5650 -118.250 TD 30 1007 -1 1009 120 85 6 122
2014253N13244 2014 64 EP MM NOT_NAMED 2014-09-13 06:00:00 TS 16.4000 -118.000 30 1007 hurdat_epa main 1108 1100 O_____________ hurdat_epa EP162014 16.4000 -118.000 TD 30 1007 -1 1009 120 80 40 6 127
2014253N13244 2014 64 EP MM NOT_NAMED 2014-09-13 09:00:00 TS 16.2000 -117.742 main 1100 1100 P_____________ EP162014 16.2000 -117.742 TD 30 1007 -1 1009 120 70 6 130
2014253N13244 2014 64 EP MM NOT_NAMED 2014-09-13 12:00:00 TS 16.0000 -117.500 30 1007 hurdat_epa main 1101 1093 O_____________ hurdat_epa EP162014 16.0000 -117.500 TD 30 1007 -1 1009 120 60 40 5 130
2014253N13244 2014 64 EP MM NOT_NAMED 2014-09-13 15:00:00 TS 15.8499 -117.308 main 1102 1095 P_____________ EP162014 15.8499 -117.308 TD 30 1007 -1 1009 120 55 5 128
2014253N13244 2014 64 EP MM NOT_NAMED 2014-09-13 18:00:00 TS 15.7000 -117.100 30 1007 hurdat_epa main 1096 1089 O_____________ hurdat_epa EP162014 15.7000 -117.100 TD 30 1007 -1 1010 120 50 40 6 128
2014253N13244 2014 64 EP MM NOT_NAMED 2014-09-13 21:00:00 TS 15.4999 -116.838 main 1092 1087 P_____________ EP162014 15.4999 -116.838 TD 30 1007 -1 1010 120 45 7 125
2014253N13244 2014 64 EP MM NOT_NAMED 2014-09-14 00:00:00 TS 15.3000 -116.500 30 1007 hurdat_epa main 1090 1079 O_____________ hurdat_epa EP162014 15.3000 -116.500 TD 30 1007 -1 1010 120 40 40 8 117
2014253N13244 2014 64 EP MM NOT_NAMED 2014-09-14 03:00:00 TS 15.1200 -116.072 main 1082 1061 P_____________ EP162014 15.1200 -116.072 TD 30 1007 -1 1010 120 35 9 109
2014253N13244 2014 64 EP MM NOT_NAMED 2014-09-14 06:00:00 TS 15.0000 -115.600 30 1007 hurdat_epa main 1061 1044 O_____________ hurdat_epa EP162014 15.0000 -115.600 TD 30 1007 -1 1010 120 30 40 9 101
2014253N13244 2014 64 EP MM NOT_NAMED 2014-09-14 09:00:00 TS 14.9474 -115.150 main 1043 1012 P_____________ EP162014 14.9474 -115.150 TD 30 1006 -1 1010 120 30 9 90
2014253N13244 2014 64 EP MM NOT_NAMED 2014-09-14 12:00:00 TS 15.0000 -114.700 30 1006 hurdat_epa main 1012 982 O_____________ hurdat_epa EP162014 15.0000 -114.700 TD 30 1006 -1 1011 120 30 45 12 180 9 76
2014253N13244 2014 64 EP MM NOT_NAMED 2014-09-14 15:00:00 TS 15.1549 -114.257 main 972 928 P_____________ EP162014 15.1549 -114.257 TD 30 1006 -1 1011 120 30 12 165 10 65
2014253N13244 2014 64 EP MM NOT_NAMED 2014-09-14 18:00:00 TS 15.4000 -113.800 30 1006 hurdat_epa main 928 880 O_____________ hurdat_epa EP162014 15.4000 -113.800 TD 30 1006 -1 1011 120 30 40 12 150 80 10 60
2014253N13244 2014 64 EP MM NOT_NAMED 2014-09-14 21:00:00 TS 15.6698 -113.322 main 876 825 P_____________ EP162014 15.6698 -113.322 TD 30 1005 -1 1009 100 30 11 58
2014253N13244 2014 64 EP MM NOT_NAMED 2014-09-15 00:00:00 TS 16.0000 -112.800 30 1005 hurdat_epa main 825 773 O_____________ hurdat_epa EP162014 16.0000 -112.800 TD 30 1005 -1 1008 80 30 40 13 57
2014253N13244 2014 64 EP MM NOT_NAMED 2014-09-15 03:00:00 TS 16.3550 -112.207 main 762 702 P_____________ EP162014 16.3550 -112.207 TD 30 1004 -1 1008 80 30 14 55
2014253N13244 2014 64 EP MM NOT_NAMED 2014-09-15 06:00:00 DS 16.8000 -111.600 30 1004 hurdat_epa main 702 636 O_____________ hurdat_epa EP162014 16.8000 -111.600 LO 30 1004 -3 1008 80 30 15 48
2014253N13244 2014 64 EP MM NOT_NAMED 2014-09-15 09:00:00 DS 17.3549 -111.027 main 623 550 P_____________ EP162014 17.3549 -111.027 LO 30 1003 -3 1008 80 30 16 41
2014253N13244 2014 64 EP MM NOT_NAMED 2014-09-15 12:00:00 DS 18.0000 -110.500 30 1003 hurdat_epa main 550 480 O_____________ hurdat_epa EP162014 18.0000 -110.500 LO 30 1003 -3 1008 80 30 17 36
2014253N13244 2014 64 EP MM NOT_NAMED 2014-09-15 15:00:00 DS 18.6850 -110.005 main 469 391 P_____________ EP162014 18.6850 -110.005 LO 30 1003 -3 1008 80 30 16 31
2014253N13244 2014 64 EP MM NOT_NAMED 2014-09-15 18:00:00 DS 19.4000 -109.600 30 1003 hurdat_epa main 391 328 O_____________ hurdat_epa EP162014 19.4000 -109.600 LO 30 1003 -3 1008 80 30 16 25
2014253N13244 2014 64 EP MM NOT_NAMED 2014-09-15 21:00:00 DS 20.0849 -109.305 main 317 245 P_____________ EP162014 20.0849 -109.305 LO 30 1003 -3 1008 80 30 15 19
2014253N13244 2014 64 EP MM NOT_NAMED 2014-09-16 00:00:00 DS 20.8000 -109.100 30 1004 hurdat_epa main 245 176 O_____________ hurdat_epa EP162014 20.8000 -109.100 LO 30 1004 -3 1008 80 30 15 13
2014253N13244 2014 64 EP MM NOT_NAMED 2014-09-16 03:00:00 DS 21.5801 -108.940 main 172 113 P_____________ EP162014 21.5801 -108.940 LO 27 1004 -3 1008 80 30 16 10
2014253N13244 2014 64 EP MM NOT_NAMED 2014-09-16 06:00:00 DS 22.4000 -108.800 25 1005 hurdat_epa main 113 O_____________ hurdat_epa EP162014 22.4000 -108.800 LO 25 1005 -3 1008 80 30 17 9

IBTrACS Databaseについて

本データベースは、米国NOAAが公開する1842年以降の世界の熱帯低気圧のベストトラックデータアーカイブInternational Best Track Archive for Climate Stewardship (IBTrACS)を、ウェブで閲覧しやすい形式に変換したものです。

最終更新日:2021-12-06